14°C Temp
5°C Dewpoint
55% Humidity
Temperature
24 KM/H
15 MPH
13 KTS
200°
South South
West

Wind Speed
Mostly Cloudy
Conditions
Pressure 1021.92 (hPa) - 30.18 (in)
Visibility 6.2 (mi) - 10.0 (km)

Current Conditions
YMML
Location 60(km)
Metar :YMML 182100Z 20013KT 9999 BKN039 14/05 Q1022
Tue 19th January 08:00 am

Airport
  Metar Aviation API Data Provided by https://www.checkwx.com/ PHP scripts by weather34.com ©2021